sensor_id;sensor_type;location;lat;lon;timestamp;P1;durP1;ratioP1;P2;durP2;ratioP2
82030;SDS011;71592;52.178;4.512;2023-07-20T00:00:25;2.33;;;1.50;;
82030;SDS011;71592;52.178;4.512;2023-07-20T00:02:51;2.95;;;1.45;;
82030;SDS011;71592;52.178;4.512;2023-07-20T00:05:16;2.30;;;1.38;;
82030;SDS011;71592;52.178;4.512;2023-07-20T00:07:46;2.20;;;1.40;;
82030;SDS011;71592;52.178;4.512;2023-07-20T00:10:12;2.95;;;1.30;;
82030;SDS011;71592;52.178;4.512;2023-07-20T00:12:38;2.38;;;1.40;;
82030;SDS011;71592;52.178;4.512;2023-07-20T00:15:04;2.47;;;1.58;;
82030;SDS011;71592;52.178;4.512;2023-07-20T00:17:29;2.28;;;1.40;;
82030;SDS011;71592;52.178;4.512;2023-07-20T00:19:55;1.83;;;1.40;;
82030;SDS011;71592;52.178;4.512;2023-07-20T00:22:20;3.03;;;1.58;;
82030;SDS011;71592;52.178;4.512;2023-07-20T00:24:45;3.03;;;2.00;;
82030;SDS011;71592;52.178;4.512;2023-07-20T00:27:11;2.10;;;1.58;;
82030;SDS011;71592;52.178;4.512;2023-07-20T00:29:36;1.75;;;1.35;;
82030;SDS011;71592;52.178;4.512;2023-07-20T00:32:02;2.28;;;1.50;;
82030;SDS011;71592;52.178;4.512;2023-07-20T00:34:30;2.30;;;1.33;;
82030;SDS011;71592;52.178;4.512;2023-07-20T00:36:56;2.58;;;1.50;;
82030;SDS011;71592;52.178;4.512;2023-07-20T00:39:21;2.85;;;1.55;;
82030;SDS011;71592;52.178;4.512;2023-07-20T00:41:46;2.35;;;1.52;;
82030;SDS011;71592;52.178;4.512;2023-07-20T00:44:12;2.00;;;1.50;;
82030;SDS011;71592;52.178;4.512;2023-07-20T00:46:37;1.65;;;1.40;;
82030;SDS011;71592;52.178;4.512;2023-07-20T00:49:02;2.75;;;1.63;;
82030;SDS011;71592;52.178;4.512;2023-07-20T00:51:29;1.95;;;1.30;;
82030;SDS011;71592;52.178;4.512;2023-07-20T00:53:55;1.80;;;1.50;;
82030;SDS011;71592;52.178;4.512;2023-07-20T00:56:20;3.85;;;1.70;;
82030;SDS011;71592;52.178;4.512;2023-07-20T00:58:46;3.65;;;1.30;;
82030;SDS011;71592;52.178;4.512;2023-07-20T01:01:12;2.22;;;1.30;;
82030;SDS011;71592;52.178;4.512;2023-07-20T01:03:38;2.65;;;1.63;;
82030;SDS011;71592;52.178;4.512;2023-07-20T01:11:10;3.37;;;1.40;;
82030;SDS011;71592;52.178;4.512;2023-07-20T01:13:46;2.58;;;1.48;;
82030;SDS011;71592;52.178;4.512;2023-07-20T01:16:11;1.45;;;1.30;;
82030;SDS011;71592;52.178;4.512;2023-07-20T01:18:37;1.92;;;1.45;;
82030;SDS011;71592;52.178;4.512;2023-07-20T01:21:03;1.42;;;1.15;;
82030;SDS011;71592;52.178;4.512;2023-07-20T01:31:46;1.95;;;1.30;;
82030;SDS011;71592;52.178;4.512;2023-07-20T01:34:17;2.10;;;1.40;;
82030;SDS011;71592;52.178;4.512;2023-07-20T01:36:44;2.13;;;1.60;;
82030;SDS011;71592;52.178;4.512;2023-07-20T01:39:13;3.80;;;1.70;;
82030;SDS011;71592;52.178;4.512;2023-07-20T01:41:38;2.30;;;1.50;;
82030;SDS011;71592;52.178;4.512;2023-07-20T01:44:04;2.22;;;1.50;;
82030;SDS011;71592;52.178;4.512;2023-07-20T01:46:30;2.13;;;1.40;;
82030;SDS011;71592;52.178;4.512;2023-07-20T01:48:55;2.20;;;1.40;;
82030;SDS011;71592;52.178;4.512;2023-07-20T01:51:21;1.88;;;1.40;;
82030;SDS011;71592;52.178;4.512;2023-07-20T01:53:46;2.22;;;1.52;;
82030;SDS011;71592;52.178;4.512;2023-07-20T01:56:11;1.88;;;1.30;;
82030;SDS011;71592;52.178;4.512;2023-07-20T01:58:37;1.98;;;1.30;;
82030;SDS011;71592;52.178;4.512;2023-07-20T02:01:03;2.15;;;1.23;;
82030;SDS011;71592;52.178;4.512;2023-07-20T02:03:28;2.50;;;1.50;;
82030;SDS011;71592;52.178;4.512;2023-07-20T02:05:54;1.65;;;1.10;;
82030;SDS011;71592;52.178;4.512;2023-07-20T02:08:19;3.60;;;1.60;;
82030;SDS011;71592;52.178;4.512;2023-07-20T02:10:45;2.05;;;1.38;;
82030;SDS011;71592;52.178;4.512;2023-07-20T02:13:14;1.80;;;1.40;;
82030;SDS011;71592;52.178;4.512;2023-07-20T02:15:42;2.10;;;1.30;;
82030;SDS011;71592;52.178;4.512;2023-07-20T02:18:08;1.98;;;1.70;;
82030;SDS011;71592;52.178;4.512;2023-07-20T02:20:34;2.25;;;1.48;;
82030;SDS011;71592;52.178;4.512;2023-07-20T02:23:00;3.33;;;1.42;;
82030;SDS011;71592;52.178;4.512;2023-07-20T02:25:25;2.17;;;1.50;;
82030;SDS011;71592;52.178;4.512;2023-07-20T02:27:51;2.90;;;1.63;;
82030;SDS011;71592;52.178;4.512;2023-07-20T02:30:17;2.58;;;1.70;;
82030;SDS011;71592;52.178;4.512;2023-07-20T02:32:43;2.30;;;1.55;;
82030;SDS011;71592;52.178;4.512;2023-07-20T02:35:10;2.55;;;1.65;;
82030;SDS011;71592;52.178;4.512;2023-07-20T02:37:36;3.85;;;1.65;;
82030;SDS011;71592;52.178;4.512;2023-07-20T02:40:02;2.55;;;1.73;;
82030;SDS011;71592;52.178;4.512;2023-07-20T02:42:29;2.42;;;1.70;;
82030;SDS011;71592;52.178;4.512;2023-07-20T02:44:55;2.80;;;1.60;;
82030;SDS011;71592;52.178;4.512;2023-07-20T02:47:20;2.53;;;1.52;;
82030;SDS011;71592;52.178;4.512;2023-07-20T02:49:45;2.25;;;1.58;;
82030;SDS011;71592;52.178;4.512;2023-07-20T02:52:11;3.47;;;1.65;;
82030;SDS011;71592;52.178;4.512;2023-07-20T02:54:36;1.80;;;1.38;;
82030;SDS011;71592;52.178;4.512;2023-07-20T02:57:01;2.80;;;1.60;;
82030;SDS011;71592;52.178;4.512;2023-07-20T02:59:27;2.67;;;1.70;;
82030;SDS011;71592;52.178;4.512;2023-07-20T03:01:52;2.75;;;1.73;;
82030;SDS011;71592;52.178;4.512;2023-07-20T03:04:19;2.53;;;1.75;;
82030;SDS011;71592;52.178;4.512;2023-07-20T03:06:44;2.20;;;1.50;;
82030;SDS011;71592;52.178;4.512;2023-07-20T03:09:10;2.80;;;1.63;;
82030;SDS011;71592;52.178;4.512;2023-07-20T03:11:35;3.25;;;1.90;;
82030;SDS011;71592;52.178;4.512;2023-07-20T03:14:01;3.70;;;2.05;;
82030;SDS011;71592;52.178;4.512;2023-07-20T03:16:26;2.70;;;1.80;;
82030;SDS011;71592;52.178;4.512;2023-07-20T03:18:52;2.90;;;1.88;;
82030;SDS011;71592;52.178;4.512;2023-07-20T03:21:17;2.90;;;1.98;;
82030;SDS011;71592;52.178;4.512;2023-07-20T03:23:43;2.30;;;1.70;;
82030;SDS011;71592;52.178;4.512;2023-07-20T03:26:08;3.35;;;1.90;;
82030;SDS011;71592;52.178;4.512;2023-07-20T03:28:37;3.10;;;2.03;;
82030;SDS011;71592;52.178;4.512;2023-07-20T03:31:04;3.03;;;1.70;;
82030;SDS011;71592;52.178;4.512;2023-07-20T03:33:30;2.90;;;1.85;;
82030;SDS011;71592;52.178;4.512;2023-07-20T03:35:56;2.88;;;1.92;;
82030;SDS011;71592;52.178;4.512;2023-07-20T03:38:23;2.80;;;1.90;;
82030;SDS011;71592;52.178;4.512;2023-07-20T03:40:52;2.42;;;1.65;;
82030;SDS011;71592;52.178;4.512;2023-07-20T03:43:22;3.85;;;2.00;;
82030;SDS011;71592;52.178;4.512;2023-07-20T03:45:48;5.45;;;2.08;;
82030;SDS011;71592;52.178;4.512;2023-07-20T03:48:17;4.63;;;2.10;;
82030;SDS011;71592;52.178;4.512;2023-07-20T03:50:45;3.53;;;1.83;;
82030;SDS011;71592;52.178;4.512;2023-07-20T03:53:11;2.50;;;1.80;;
82030;SDS011;71592;52.178;4.512;2023-07-20T03:55:37;3.15;;;1.80;;
82030;SDS011;71592;52.178;4.512;2023-07-20T03:58:02;2.63;;;1.83;;
82030;SDS011;71592;52.178;4.512;2023-07-20T04:00:28;3.92;;;2.30;;
82030;SDS011;71592;52.178;4.512;2023-07-20T04:02:53;2.92;;;2.00;;
82030;SDS011;71592;52.178;4.512;2023-07-20T04:05:19;2.60;;;2.13;;
82030;SDS011;71592;52.178;4.512;2023-07-20T04:07:44;2.38;;;1.77;;
82030;SDS011;71592;52.178;4.512;2023-07-20T04:10:10;4.47;;;2.20;;
82030;SDS011;71592;52.178;4.512;2023-07-20T04:12:36;3.47;;;2.08;;
82030;SDS011;71592;52.178;4.512;2023-07-20T04:15:01;3.33;;;2.30;;
82030;SDS011;71592;52.178;4.512;2023-07-20T04:17:29;3.85;;;2.13;;
82030;SDS011;71592;52.178;4.512;2023-07-20T04:19:55;2.95;;;1.73;;
82030;SDS011;71592;52.178;4.512;2023-07-20T04:22:20;3.67;;;1.95;;
82030;SDS011;71592;52.178;4.512;2023-07-20T04:24:46;2.63;;;1.75;;
82030;SDS011;71592;52.178;4.512;2023-07-20T04:27:12;2.50;;;2.25;;
82030;SDS011;71592;52.178;4.512;2023-07-20T04:29:37;3.25;;;1.85;;
82030;SDS011;71592;52.178;4.512;2023-07-20T04:32:03;3.03;;;2.05;;
82030;SDS011;71592;52.178;4.512;2023-07-20T04:34:28;3.53;;;1.92;;
82030;SDS011;71592;52.178;4.512;2023-07-20T04:36:53;2.50;;;1.77;;
82030;SDS011;71592;52.178;4.512;2023-07-20T04:39:19;2.78;;;1.90;;
82030;SDS011;71592;52.178;4.512;2023-07-20T04:41:44;5.07;;;1.88;;
82030;SDS011;71592;52.178;4.512;2023-07-20T04:44:09;3.38;;;1.95;;
82030;SDS011;71592;52.178;4.512;2023-07-20T04:46:35;2.85;;;1.73;;
82030;SDS011;71592;52.178;4.512;2023-07-20T04:49:01;3.15;;;1.90;;
82030;SDS011;71592;52.178;4.512;2023-07-20T04:51:26;3.70;;;1.75;;
82030;SDS011;71592;52.178;4.512;2023-07-20T04:53:52;2.70;;;1.83;;
82030;SDS011;71592;52.178;4.512;2023-07-20T04:56:17;3.08;;;1.75;;
82030;SDS011;71592;52.178;4.512;2023-07-20T04:58:43;2.47;;;1.75;;
82030;SDS011;71592;52.178;4.512;2023-07-20T05:01:08;3.35;;;1.83;;
82030;SDS011;71592;52.178;4.512;2023-07-20T05:03:33;2.30;;;1.70;;
82030;SDS011;71592;52.178;4.512;2023-07-20T05:05:59;2.20;;;1.65;;
82030;SDS011;71592;52.178;4.512;2023-07-20T05:08:24;2.50;;;1.60;;
82030;SDS011;71592;52.178;4.512;2023-07-20T05:10:50;2.63;;;1.75;;
82030;SDS011;71592;52.178;4.512;2023-07-20T05:13:15;2.42;;;1.40;;
82030;SDS011;71592;52.178;4.512;2023-07-20T05:15:41;2.60;;;1.50;;
82030;SDS011;71592;52.178;4.512;2023-07-20T05:18:06;2.97;;;1.60;;
82030;SDS011;71592;52.178;4.512;2023-07-20T05:20:33;1.70;;;1.30;;
82030;SDS011;71592;52.178;4.512;2023-07-20T05:22:59;3.38;;;1.67;;
82030;SDS011;71592;52.178;4.512;2023-07-20T05:25:25;1.63;;;1.35;;
82030;SDS011;71592;52.178;4.512;2023-07-20T05:27:51;1.98;;;1.60;;
82030;SDS011;71592;52.178;4.512;2023-07-20T05:30:17;1.67;;;1.58;;
82030;SDS011;71592;52.178;4.512;2023-07-20T05:32:43;1.85;;;1.40;;
82030;SDS011;71592;52.178;4.512;2023-07-20T05:35:10;3.05;;;1.45;;
82030;SDS011;71592;52.178;4.512;2023-07-20T05:37:36;2.65;;;1.60;;
82030;SDS011;71592;52.178;4.512;2023-07-20T05:40:03;2.22;;;1.60;;
82030;SDS011;71592;52.178;4.512;2023-07-20T05:42:29;2.33;;;2.00;;
82030;SDS011;71592;52.178;4.512;2023-07-20T05:44:54;1.45;;;1.33;;
82030;SDS011;71592;52.178;4.512;2023-07-20T05:47:20;2.08;;;1.60;;
82030;SDS011;71592;52.178;4.512;2023-07-20T05:49:45;1.58;;;1.40;;
82030;SDS011;71592;52.178;4.512;2023-07-20T05:52:11;2.58;;;1.40;;
82030;SDS011;71592;52.178;4.512;2023-07-20T05:54:36;2.72;;;2.08;;
82030;SDS011;71592;52.178;4.512;2023-07-20T05:57:01;1.83;;;1.63;;
82030;SDS011;71592;52.178;4.512;2023-07-20T05:59:27;1.90;;;1.50;;
82030;SDS011;71592;52.178;4.512;2023-07-20T06:01:56;2.28;;;1.48;;
82030;SDS011;71592;52.178;4.512;2023-07-20T06:04:22;1.88;;;1.30;;
82030;SDS011;71592;52.178;4.512;2023-07-20T06:06:48;2.35;;;1.42;;
82030;SDS011;71592;52.178;4.512;2023-07-20T06:09:13;1.45;;;1.17;;
82030;SDS011;71592;52.178;4.512;2023-07-20T06:11:39;1.73;;;1.30;;
82030;SDS011;71592;52.178;4.512;2023-07-20T06:14:04;2.47;;;1.42;;
82030;SDS011;71592;52.178;4.512;2023-07-20T06:16:30;2.35;;;1.50;;
82030;SDS011;71592;52.178;4.512;2023-07-20T06:18:55;2.25;;;1.40;;
82030;SDS011;71592;52.178;4.512;2023-07-20T06:21:21;3.05;;;2.20;;
82030;SDS011;71592;52.178;4.512;2023-07-20T06:23:47;2.67;;;1.70;;
82030;SDS011;71592;52.178;4.512;2023-07-20T06:26:12;3.72;;;1.55;;
82030;SDS011;71592;52.178;4.512;2023-07-20T06:28:38;2.72;;;1.67;;
82030;SDS011;71592;52.178;4.512;2023-07-20T06:31:03;2.58;;;1.50;;
82030;SDS011;71592;52.178;4.512;2023-07-20T06:33:29;2.10;;;1.20;;
82030;SDS011;71592;52.178;4.512;2023-07-20T06:35:55;3.80;;;1.45;;
82030;SDS011;71592;52.178;4.512;2023-07-20T06:38:22;3.05;;;1.50;;
82030;SDS011;71592;52.178;4.512;2023-07-20T06:40:51;2.05;;;1.40;;
82030;SDS011;71592;52.178;4.512;2023-07-20T06:43:17;2.33;;;1.50;;
82030;SDS011;71592;52.178;4.512;2023-07-20T06:45:43;2.70;;;1.58;;
82030;SDS011;71592;52.178;4.512;2023-07-20T06:48:08;2.25;;;1.45;;
82030;SDS011;71592;52.178;4.512;2023-07-20T06:50:34;2.28;;;1.67;;
82030;SDS011;71592;52.178;4.512;2023-07-20T06:53:00;2.50;;;1.38;;
82030;SDS011;71592;52.178;4.512;2023-07-20T06:55:28;2.85;;;1.65;;
82030;SDS011;71592;52.178;4.512;2023-07-20T06:57:53;2.40;;;1.58;;
82030;SDS011;71592;52.178;4.512;2023-07-20T07:00:19;2.58;;;1.40;;
82030;SDS011;71592;52.178;4.512;2023-07-20T07:02:44;2.20;;;1.65;;
82030;SDS011;71592;52.178;4.512;2023-07-20T07:05:10;3.45;;;1.42;;
82030;SDS011;71592;52.178;4.512;2023-07-20T07:07:35;2.72;;;1.40;;
82030;SDS011;71592;52.178;4.512;2023-07-20T07:10:01;1.90;;;1.40;;
82030;SDS011;71592;52.178;4.512;2023-07-20T07:12:30;2.08;;;1.40;;
82030;SDS011;71592;52.178;4.512;2023-07-20T07:14:56;2.60;;;1.80;;
82030;SDS011;71592;52.178;4.512;2023-07-20T07:17:22;2.58;;;1.45;;
82030;SDS011;71592;52.178;4.512;2023-07-20T07:19:47;2.00;;;1.40;;
82030;SDS011;71592;52.178;4.512;2023-07-20T07:22:13;2.15;;;1.52;;
82030;SDS011;71592;52.178;4.512;2023-07-20T07:24:39;3.97;;;1.60;;
82030;SDS011;71592;52.178;4.512;2023-07-20T07:27:06;3.05;;;1.60;;
82030;SDS011;71592;52.178;4.512;2023-07-20T07:29:33;2.25;;;1.52;;
82030;SDS011;71592;52.178;4.512;2023-07-20T07:31:58;3.95;;;1.60;;
82030;SDS011;71592;52.178;4.512;2023-07-20T07:34:24;2.20;;;1.35;;
82030;SDS011;71592;52.178;4.512;2023-07-20T07:36:50;2.20;;;1.30;;
82030;SDS011;71592;52.178;4.512;2023-07-20T07:39:15;1.45;;;1.25;;
82030;SDS011;71592;52.178;4.512;2023-07-20T07:41:41;2.08;;;1.33;;
82030;SDS011;71592;52.178;4.512;2023-07-20T07:44:06;5.07;;;1.60;;
82030;SDS011;71592;52.178;4.512;2023-07-20T07:46:33;2.05;;;1.10;;
82030;SDS011;71592;52.178;4.512;2023-07-20T07:48:58;1.70;;;0.90;;
82030;SDS011;71592;52.178;4.512;2023-07-20T07:51:24;2.63;;;1.35;;
82030;SDS011;71592;52.178;4.512;2023-07-20T07:53:49;1.67;;;1.35;;
82030;SDS011;71592;52.178;4.512;2023-07-20T07:56:15;1.75;;;1.40;;
82030;SDS011;71592;52.178;4.512;2023-07-20T07:58:42;1.50;;;1.00;;
82030;SDS011;71592;52.178;4.512;2023-07-20T08:01:07;1.48;;;0.90;;
82030;SDS011;71592;52.178;4.512;2023-07-20T08:03:34;1.33;;;1.00;;
82030;SDS011;71592;52.178;4.512;2023-07-20T08:06:01;1.83;;;1.20;;
82030;SDS011;71592;52.178;4.512;2023-07-20T08:08:30;1.90;;;1.20;;
82030;SDS011;71592;52.178;4.512;2023-07-20T08:10:56;1.58;;;1.13;;
82030;SDS011;71592;52.178;4.512;2023-07-20T08:13:21;2.65;;;1.38;;
82030;SDS011;71592;52.178;4.512;2023-07-20T08:15:49;2.67;;;1.30;;
82030;SDS011;71592;52.178;4.512;2023-07-20T08:18:19;2.40;;;1.50;;
82030;SDS011;71592;52.178;4.512;2023-07-20T08:20:45;1.85;;;1.30;;
82030;SDS011;71592;52.178;4.512;2023-07-20T08:23:11;3.85;;;1.48;;
82030;SDS011;71592;52.178;4.512;2023-07-20T08:25:37;1.42;;;1.20;;
82030;SDS011;71592;52.178;4.512;2023-07-20T08:28:06;1.40;;;1.08;;
82030;SDS011;71592;52.178;4.512;2023-07-20T08:30:39;1.15;;;1.05;;
82030;SDS011;71592;52.178;4.512;2023-07-20T08:33:06;1.67;;;1.20;;
82030;SDS011;71592;52.178;4.512;2023-07-20T08:35:35;2.67;;;1.63;;
82030;SDS011;71592;52.178;4.512;2023-07-20T08:38:00;2.50;;;1.25;;
82030;SDS011;71592;52.178;4.512;2023-07-20T08:40:26;2.70;;;1.85;;
82030;SDS011;71592;52.178;4.512;2023-07-20T08:42:52;2.28;;;1.17;;
82030;SDS011;71592;52.178;4.512;2023-07-20T08:45:19;1.80;;;1.23;;
82030;SDS011;71592;52.178;4.512;2023-07-20T08:47:47;2.08;;;1.58;;
82030;SDS011;71592;52.178;4.512;2023-07-20T08:50:14;2.17;;;1.23;;
82030;SDS011;71592;52.178;4.512;2023-07-20T08:52:41;1.40;;;1.10;;
82030;SDS011;71592;52.178;4.512;2023-07-20T08:55:06;2.35;;;1.30;;
82030;SDS011;71592;52.178;4.512;2023-07-20T08:57:33;1.42;;;1.10;;
82030;SDS011;71592;52.178;4.512;2023-07-20T09:00:02;2.05;;;1.10;;
82030;SDS011;71592;52.178;4.512;2023-07-20T09:02:33;2.08;;;1.20;;
82030;SDS011;71592;52.178;4.512;2023-07-20T09:05:04;2.67;;;1.10;;
82030;SDS011;71592;52.178;4.512;2023-07-20T09:07:29;2.10;;;1.15;;
82030;SDS011;71592;52.178;4.512;2023-07-20T09:09:57;1.35;;;1.10;;
82030;SDS011;71592;52.178;4.512;2023-07-20T09:12:23;1.88;;;1.40;;
82030;SDS011;71592;52.178;4.512;2023-07-20T09:14:48;1.83;;;1.10;;
82030;SDS011;71592;52.178;4.512;2023-07-20T09:17:14;0.82;;;0.73;;
82030;SDS011;71592;52.178;4.512;2023-07-20T09:19:46;2.00;;;1.10;;
82030;SDS011;71592;52.178;4.512;2023-07-20T09:22:14;1.13;;;0.90;;
82030;SDS011;71592;52.178;4.512;2023-07-20T09:24:40;1.10;;;1.00;;
82030;SDS011;71592;52.178;4.512;2023-07-20T09:27:06;1.75;;;1.10;;
82030;SDS011;71592;52.178;4.512;2023-07-20T09:29:32;1.73;;;0.93;;
82030;SDS011;71592;52.178;4.512;2023-07-20T09:32:17;1.63;;;1.20;;
82030;SDS011;71592;52.178;4.512;2023-07-20T09:34:50;1.60;;;1.40;;
82030;SDS011;71592;52.178;4.512;2023-07-20T09:37:20;2.42;;;1.30;;
82030;SDS011;71592;52.178;4.512;2023-07-20T09:39:51;1.88;;;1.10;;
82030;SDS011;71592;52.178;4.512;2023-07-20T09:42:21;2.33;;;1.50;;
82030;SDS011;71592;52.178;4.512;2023-07-20T09:44:47;1.67;;;1.17;;
82030;SDS011;71592;52.178;4.512;2023-07-20T09:47:13;2.13;;;1.40;;
82030;SDS011;71592;52.178;4.512;2023-07-20T09:49:46;1.70;;;1.10;;
82030;SDS011;71592;52.178;4.512;2023-07-20T09:52:12;2.97;;;1.15;;
82030;SDS011;71592;52.178;4.512;2023-07-20T09:54:39;1.40;;;1.20;;
82030;SDS011;71592;52.178;4.512;2023-07-20T09:57:08;3.60;;;1.40;;
82030;SDS011;71592;52.178;4.512;2023-07-20T09:59:34;2.47;;;1.20;;
82030;SDS011;71592;52.178;4.512;2023-07-20T10:01:59;2.50;;;1.10;;
82030;SDS011;71592;52.178;4.512;2023-07-20T10:04:26;2.00;;;1.33;;
82030;SDS011;71592;52.178;4.512;2023-07-20T10:06:54;1.52;;;1.30;;
82030;SDS011;71592;52.178;4.512;2023-07-20T10:09:21;1.88;;;1.17;;
82030;SDS011;71592;52.178;4.512;2023-07-20T10:11:49;3.78;;;1.35;;
82030;SDS011;71592;52.178;4.512;2023-07-20T10:14:16;2.22;;;1.00;;
82030;SDS011;71592;52.178;4.512;2023-07-20T10:16:54;2.38;;;1.27;;
82030;SDS011;71592;52.178;4.512;2023-07-20T10:19:34;1.33;;;1.17;;
82030;SDS011;71592;52.178;4.512;2023-07-20T10:22:19;1.30;;;1.00;;
82030;SDS011;71592;52.178;4.512;2023-07-20T10:24:50;1.80;;;1.10;;
82030;SDS011;71592;52.178;4.512;2023-07-20T10:27:19;1.25;;;1.10;;
82030;SDS011;71592;52.178;4.512;2023-07-20T10:29:48;2.30;;;1.13;;
82030;SDS011;71592;52.178;4.512;2023-07-20T10:32:13;2.10;;;1.35;;
82030;SDS011;71592;52.178;4.512;2023-07-20T10:34:39;1.52;;;1.02;;
82030;SDS011;71592;52.178;4.512;2023-07-20T10:37:05;2.20;;;1.30;;
82030;SDS011;71592;52.178;4.512;2023-07-20T10:39:31;1.50;;;1.08;;
82030;SDS011;71592;52.178;4.512;2023-07-20T10:44:30;1.55;;;0.98;;
82030;SDS011;71592;52.178;4.512;2023-07-20T10:46:59;1.15;;;1.05;;
82030;SDS011;71592;52.178;4.512;2023-07-20T10:49:33;1.83;;;1.20;;
82030;SDS011;71592;52.178;4.512;2023-07-20T10:52:03;1.92;;;0.95;;
82030;SDS011;71592;52.178;4.512;2023-07-20T10:56:56;1.30;;;0.93;;
82030;SDS011;71592;52.178;4.512;2023-07-20T11:01:56;2.22;;;1.20;;
82030;SDS011;71592;52.178;4.512;2023-07-20T11:04:38;1.27;;;1.00;;
82030;SDS011;71592;52.178;4.512;2023-07-20T11:07:05;2.30;;;1.20;;
82030;SDS011;71592;52.178;4.512;2023-07-20T11:09:38;2.13;;;1.10;;
82030;SDS011;71592;52.178;4.512;2023-07-20T11:12:10;2.00;;;1.35;;
82030;SDS011;71592;52.178;4.512;2023-07-20T11:14:40;1.45;;;1.30;;
82030;SDS011;71592;52.178;4.512;2023-07-20T11:17:17;1.38;;;1.00;;
82030;SDS011;71592;52.178;4.512;2023-07-20T11:19:50;1.23;;;0.90;;
82030;SDS011;71592;52.178;4.512;2023-07-20T11:22:21;1.10;;;1.00;;
82030;SDS011;71592;52.178;4.512;2023-07-20T11:24:50;1.00;;;0.90;;
82030;SDS011;71592;52.178;4.512;2023-07-20T11:27:15;2.00;;;1.02;;
82030;SDS011;71592;52.178;4.512;2023-07-20T11:29:41;1.70;;;1.15;;
82030;SDS011;71592;52.178;4.512;2023-07-20T11:32:06;1.30;;;0.93;;
82030;SDS011;71592;52.178;4.512;2023-07-20T11:34:33;1.55;;;1.20;;
82030;SDS011;71592;52.178;4.512;2023-07-20T11:36:59;1.42;;;1.10;;
82030;SDS011;71592;52.178;4.512;2023-07-20T11:39:25;1.08;;;0.98;;
82030;SDS011;71592;52.178;4.512;2023-07-20T11:41:51;1.10;;;1.00;;
82030;SDS011;71592;52.178;4.512;2023-07-20T11:44:18;1.63;;;1.00;;
82030;SDS011;71592;52.178;4.512;2023-07-20T11:46:51;1.10;;;1.00;;
82030;SDS011;71592;52.178;4.512;2023-07-20T11:49:24;2.40;;;1.15;;
82030;SDS011;71592;52.178;4.512;2023-07-20T11:51:50;1.95;;;1.17;;
82030;SDS011;71592;52.178;4.512;2023-07-20T11:54:16;1.20;;;1.10;;
82030;SDS011;71592;52.178;4.512;2023-07-20T11:56:42;1.40;;;1.20;;
82030;SDS011;71592;52.178;4.512;2023-07-20T11:59:07;1.67;;;1.20;;
82030;SDS011;71592;52.178;4.512;2023-07-20T12:01:33;1.77;;;1.10;;
82030;SDS011;71592;52.178;4.512;2023-07-20T12:04:00;1.23;;;0.98;;
82030;SDS011;71592;52.178;4.512;2023-07-20T12:06:27;1.60;;;1.13;;
82030;SDS011;71592;52.178;4.512;2023-07-20T12:08:59;1.95;;;1.13;;
82030;SDS011;71592;52.178;4.512;2023-07-20T12:11:34;2.30;;;1.00;;
82030;SDS011;71592;52.178;4.512;2023-07-20T12:14:02;1.27;;;1.10;;
82030;SDS011;71592;52.178;4.512;2023-07-20T12:16:35;1.73;;;1.00;;
82030;SDS011;71592;52.178;4.512;2023-07-20T12:19:02;1.63;;;1.05;;
82030;SDS011;71592;52.178;4.512;2023-07-20T12:21:33;1.38;;;1.00;;
82030;SDS011;71592;52.178;4.512;2023-07-20T12:23:59;1.52;;;1.10;;
82030;SDS011;71592;52.178;4.512;2023-07-20T12:26:25;2.10;;;1.02;;
82030;SDS011;71592;52.178;4.512;2023-07-20T12:28:51;1.92;;;1.17;;
82030;SDS011;71592;52.178;4.512;2023-07-20T12:31:17;2.00;;;1.13;;
82030;SDS011;71592;52.178;4.512;2023-07-20T12:33:43;1.83;;;1.10;;
82030;SDS011;71592;52.178;4.512;2023-07-20T12:36:09;1.60;;;1.23;;
82030;SDS011;71592;52.178;4.512;2023-07-20T12:38:35;1.38;;;1.10;;
82030;SDS011;71592;52.178;4.512;2023-07-20T12:41:00;1.23;;;1.00;;
82030;SDS011;71592;52.178;4.512;2023-07-20T12:43:27;1.38;;;1.10;;
82030;SDS011;71592;52.178;4.512;2023-07-20T12:45:54;0.90;;;0.90;;
82030;SDS011;71592;52.178;4.512;2023-07-20T12:48:20;2.53;;;1.35;;
82030;SDS011;71592;52.178;4.512;2023-07-20T12:50:45;1.92;;;1.10;;
82030;SDS011;71592;52.178;4.512;2023-07-20T12:53:11;1.13;;;1.02;;
82030;SDS011;71592;52.178;4.512;2023-07-20T12:55:37;1.55;;;1.10;;
82030;SDS011;71592;52.178;4.512;2023-07-20T12:58:03;1.20;;;0.95;;
82030;SDS011;71592;52.178;4.512;2023-07-20T13:00:30;1.58;;;0.90;;
82030;SDS011;71592;52.178;4.512;2023-07-20T13:02:55;1.02;;;0.93;;
82030;SDS011;71592;52.178;4.512;2023-07-20T13:05:21;1.30;;;1.08;;
82030;SDS011;71592;52.178;4.512;2023-07-20T13:07:49;1.95;;;1.20;;
82030;SDS011;71592;52.178;4.512;2023-07-20T13:10:18;2.17;;;1.33;;
82030;SDS011;71592;52.178;4.512;2023-07-20T13:12:43;1.85;;;1.25;;
82030;SDS011;71592;52.178;4.512;2023-07-20T13:15:09;1.65;;;1.13;;
82030;SDS011;71592;52.178;4.512;2023-07-20T13:17:35;1.77;;;0.93;;
82030;SDS011;71592;52.178;4.512;2023-07-20T13:20:06;1.33;;;1.00;;
82030;SDS011;71592;52.178;4.512;2023-07-20T13:22:34;1.25;;;1.15;;
82030;SDS011;71592;52.178;4.512;2023-07-20T13:25:00;1.83;;;1.30;;
82030;SDS011;71592;52.178;4.512;2023-07-20T13:27:26;1.70;;;1.50;;
82030;SDS011;71592;52.178;4.512;2023-07-20T13:29:52;1.30;;;1.20;;
82030;SDS011;71592;52.178;4.512;2023-07-20T13:32:17;1.40;;;1.02;;
82030;SDS011;71592;52.178;4.512;2023-07-20T13:34:43;1.77;;;1.10;;
82030;SDS011;71592;52.178;4.512;2023-07-20T13:37:09;2.05;;;1.00;;
82030;SDS011;71592;52.178;4.512;2023-07-20T13:39:36;1.75;;;1.30;;
82030;SDS011;71592;52.178;4.512;2023-07-20T13:42:01;1.10;;;1.00;;
82030;SDS011;71592;52.178;4.512;2023-07-20T13:44:29;1.80;;;1.10;;
82030;SDS011;71592;52.178;4.512;2023-07-20T13:46:55;2.50;;;1.20;;
82030;SDS011;71592;52.178;4.512;2023-07-20T13:49:21;1.08;;;0.98;;
82030;SDS011;71592;52.178;4.512;2023-07-20T13:51:46;1.70;;;1.10;;
82030;SDS011;71592;52.178;4.512;2023-07-20T13:54:15;1.88;;;1.10;;
82030;SDS011;71592;52.178;4.512;2023-07-20T13:56:40;3.25;;;1.15;;
82030;SDS011;71592;52.178;4.512;2023-07-20T13:59:06;1.83;;;1.10;;
82030;SDS011;71592;52.178;4.512;2023-07-20T14:01:31;1.73;;;1.23;;
82030;SDS011;71592;52.178;4.512;2023-07-20T14:03:59;1.48;;;1.02;;
82030;SDS011;71592;52.178;4.512;2023-07-20T14:06:25;1.35;;;0.90;;
82030;SDS011;71592;52.178;4.512;2023-07-20T14:08:50;1.27;;;1.00;;
82030;SDS011;71592;52.178;4.512;2023-07-20T14:11:17;1.25;;;1.10;;
82030;SDS011;71592;52.178;4.512;2023-07-20T14:13:43;1.48;;;1.20;;
82030;SDS011;71592;52.178;4.512;2023-07-20T14:16:09;2.67;;;1.08;;
82030;SDS011;71592;52.178;4.512;2023-07-20T14:18:34;1.77;;;1.20;;
82030;SDS011;71592;52.178;4.512;2023-07-20T14:21:00;1.92;;;1.20;;
82030;SDS011;71592;52.178;4.512;2023-07-20T14:23:28;1.45;;;1.20;;
82030;SDS011;71592;52.178;4.512;2023-07-20T14:25:54;1.52;;;1.10;;
82030;SDS011;71592;52.178;4.512;2023-07-20T14:28:19;1.60;;;1.30;;
82030;SDS011;71592;52.178;4.512;2023-07-20T14:30:47;1.90;;;1.15;;
82030;SDS011;71592;52.178;4.512;2023-07-20T14:33:12;0.98;;;0.90;;
82030;SDS011;71592;52.178;4.512;2023-07-20T14:35:38;1.85;;;1.15;;
82030;SDS011;71592;52.178;4.512;2023-07-20T14:38:03;1.80;;;1.10;;
82030;SDS011;71592;52.178;4.512;2023-07-20T14:40:29;1.52;;;1.10;;
82030;SDS011;71592;52.178;4.512;2023-07-20T14:42:57;0.95;;;0.90;;
82030;SDS011;71592;52.178;4.512;2023-07-20T14:45:24;3.03;;;1.20;;
82030;SDS011;71592;52.178;4.512;2023-07-20T14:47:49;2.53;;;1.23;;
82030;SDS011;71592;52.178;4.512;2023-07-20T14:50:18;1.55;;;1.08;;
82030;SDS011;71592;52.178;4.512;2023-07-20T14:52:44;1.33;;;1.20;;
82030;SDS011;71592;52.178;4.512;2023-07-20T14:55:13;1.50;;;1.00;;
82030;SDS011;71592;52.178;4.512;2023-07-20T14:57:38;2.30;;;1.13;;
82030;SDS011;71592;52.178;4.512;2023-07-20T15:00:05;1.60;;;1.02;;
82030;SDS011;71592;52.178;4.512;2023-07-20T15:02:37;1.98;;;1.20;;
82030;SDS011;71592;52.178;4.512;2023-07-20T15:05:02;2.08;;;1.20;;